Time;durP1;ratioP1;P1;durP2;ratioP2;P2;SDS_P1;SDS_P2;PMS_P1;PMS_P2;Temp;Humidity;BMP_temperature;BMP_pressure;BME280_temperature;BME280_humidity;BME280_pressure;Samples;Min_cycle;Max_cycle;Signal;HPM_P1;HPM_P2
2022/03/10 00:00:37;;;;;;;0.65;0.20;;;;;;;;;;4195679;28;20070;-66
2022/03/10 00:02:42;;;;;;;0.40;0.40;;;;;;;;;;4212978;28;20059;-65
2022/03/10 00:04:43;;;;;;;0.20;0.20;;;;;;;;;;4213625;28;20048;-66
2022/03/10 00:06:45;;;;;;;1.13;0.30;;;;;;;;;;4195585;28;20048;-66
2022/03/10 00:08:46;;;;;;;0.35;0.25;;;;;;;;;;4213654;28;20097;-65
2022/03/10 00:10:47;;;;;;;0.43;0.28;;;;;;;;;;4213671;28;20052;-66
2022/03/10 00:12:51;;;;;;;0.20;0.20;;;;;;;;;;4213356;28;20542;-65
2022/03/10 00:14:52;;;;;;;0.10;0.10;;;;;;;;;;4213432;28;20445;-65
2022/03/10 00:16:53;;;;;;;0.22;0.20;;;;;;;;;;4212880;28;20080;-65
2022/03/10 00:18:54;;;;;;;0.35;0.17;;;;;;;;;;4195364;28;20076;-65
2022/03/10 00:20:55;;;;;;;1.42;0.30;;;;;;;;;;4213288;28;20048;-66
2022/03/10 00:22:56;;;;;;;0.57;0.30;;;;;;;;;;4213159;28;20055;-66
2022/03/10 00:24:57;;;;;;;0.30;0.20;;;;;;;;;;4195065;28;20048;-65
2022/03/10 00:26:58;;;;;;;0.10;0.10;;;;;;;;;;4213330;28;20191;-66
2022/03/10 00:29:00;;;;;;;0.70;0.30;;;;;;;;;;4213247;28;20078;-66
2022/03/10 00:31:01;;;;;;;0.30;0.30;;;;;;;;;;4213132;28;20056;-66
2022/03/10 00:33:02;;;;;;;0.35;0.20;;;;;;;;;;4212853;28;20060;-65
2022/03/10 00:35:03;;;;;;;0.20;0.20;;;;;;;;;;4213751;28;20044;-65
2022/03/10 00:37:05;;;;;;;0.20;0.20;;;;;;;;;;4212847;28;20483;-65
2022/03/10 00:39:06;;;;;;;0.52;0.20;;;;;;;;;;4213072;28;20052;-65
2022/03/10 00:41:07;;;;;;;0.73;0.20;;;;;;;;;;4213240;28;20044;-66
2022/03/10 00:43:11;;;;;;;0.20;0.20;;;;;;;;;;4212848;28;20105;-65
2022/03/10 00:45:13;;;;;;;0.25;0.25;;;;;;;;;;4213142;28;20040;-65
2022/03/10 00:47:14;;;;;;;0.68;0.10;;;;;;;;;;4212570;28;20105;-64
2022/03/10 00:49:15;;;;;;;0.10;0.10;;;;;;;;;;4213092;28;20044;-66
2022/03/10 00:51:16;;;;;;;0.17;0.10;;;;;;;;;;4212953;28;20039;-66
2022/03/10 00:53:17;;;;;;;0.20;0.20;;;;;;;;;;4212717;28;20475;-65
2022/03/10 00:55:19;;;;;;;0.38;0.22;;;;;;;;;;4212965;28;20044;-66
2022/03/10 00:57:20;;;;;;;0.32;0.20;;;;;;;;;;4212924;28;20044;-66
2022/03/10 00:59:21;;;;;;;0.20;0.20;;;;;;;;;;4213535;28;20078;-66
2022/03/10 01:01:21;;;;;;;0.17;0.17;;;;;;;;;;4213194;28;20048;-65
2022/03/10 01:03:23;;;;;;;0.45;0.30;;;;;;;;;;4212527;28;20519;-65
2022/03/10 01:05:25;;;;;;;0.40;0.20;;;;;;;;;;4212919;28;20069;-65
2022/03/10 01:07:26;;;;;;;0.28;0.20;;;;;;;;;;4212612;28;20468;-65
2022/03/10 01:09:26;;;;;;;0.30;0.15;;;;;;;;;;4213101;28;20089;-64
2022/03/10 01:11:27;;;;;;;0.50;0.20;;;;;;;;;;4212821;28;20086;-65
2022/03/10 01:13:28;;;;;;;0.35;0.20;;;;;;;;;;4212708;28;20086;-66
2022/03/10 01:15:29;;;;;;;0.30;0.20;;;;;;;;;;4212732;28;20090;-65
2022/03/10 01:17:30;;;;;;;0.30;0.20;;;;;;;;;;4212252;28;20089;-65
2022/03/10 01:19:31;;;;;;;0.57;0.20;;;;;;;;;;4212851;28;20044;-65
2022/03/10 01:21:32;;;;;;;0.17;0.13;;;;;;;;;;4212758;28;20136;-66
2022/03/10 01:23:33;;;;;;;0.10;0.10;;;;;;;;;;4212824;28;20121;-65
2022/03/10 01:25:33;;;;;;;1.48;0.20;;;;;;;;;;4212673;28;20460;-65
2022/03/10 01:27:35;;;;;;;0.55;0.28;;;;;;;;;;4212599;28;20075;-65
2022/03/10 01:29:36;;;;;;;0.17;0.17;;;;;;;;;;4212926;28;20048;-66
2022/03/10 01:31:37;;;;;;;0.52;0.25;;;;;;;;;;4212765;28;20479;-65
2022/03/10 01:33:38;;;;;;;0.30;0.20;;;;;;;;;;4212326;28;20056;-65
2022/03/10 01:35:39;;;;;;;0.70;0.20;;;;;;;;;;4212614;28;20087;-65
2022/03/10 01:37:40;;;;;;;0.20;0.20;;;;;;;;;;4211085;28;20233;-65
2022/03/10 01:39:41;;;;;;;0.32;0.20;;;;;;;;;;4212782;28;20102;-65
2022/03/10 01:41:42;;;;;;;0.20;0.20;;;;;;;;;;4212712;28;20052;-65
2022/03/10 01:43:55;;;;;;;0.68;0.20;;;;;;;;;;4212522;28;20087;-65
2022/03/10 01:45:56;;;;;;;0.10;0.10;;;;;;;;;;4212547;28;20051;-64
2022/03/10 01:47:57;;;;;;;0.20;0.20;;;;;;;;;;4212109;28;20055;-65
2022/03/10 01:49:58;;;;;;;0.10;0.10;;;;;;;;;;4212495;28;20051;-65
2022/03/10 01:51:59;;;;;;;0.10;0.10;;;;;;;;;;4212159;28;20097;-65
2022/03/10 01:54:01;;;;;;;0.45;0.30;;;;;;;;;;4212338;28;20055;-65
2022/03/10 01:56:02;;;;;;;0.13;0.10;;;;;;;;;;4214318;28;20432;-64
2022/03/10 01:58:03;;;;;;;0.17;0.10;;;;;;;;;;4215388;28;20603;-65
2022/03/10 02:00:05;;;;;;;0.10;0.10;;;;;;;;;;4215574;28;20044;-65
2022/03/10 02:02:07;;;;;;;0.85;0.20;;;;;;;;;;4215059;28;20048;-65
2022/03/10 02:04:08;;;;;;;0.25;0.20;;;;;;;;;;4215616;28;20048;-65
2022/03/10 02:06:09;;;;;;;0.68;0.28;;;;;;;;;;4215373;28;20094;-65
2022/03/10 02:10:30;;;;;;;1.00;0.20;;;;;;;;;;4215493;28;20437;-65
2022/03/10 02:12:31;;;;;;;0.28;0.20;;;;;;;;;;4215354;28;20185;-64
2022/03/10 02:19:10;;;;;;;0.22;0.22;;;;;;;;;;4215604;28;20085;-64
2022/03/10 02:21:11;;;;;;;0.20;0.20;;;;;;;;;;4197351;28;20048;-65
2022/03/10 02:23:12;;;;;;;0.20;0.20;;;;;;;;;;4215151;28;20419;-65
2022/03/10 02:25:15;;;;;;;0.35;0.20;;;;;;;;;;4215135;28;20104;-64
2022/03/10 02:27:16;;;;;;;0.20;0.20;;;;;;;;;;4214994;28;20574;-64
2022/03/10 02:29:17;;;;;;;0.17;0.10;;;;;;;;;;4215032;28;20087;-65
2022/03/10 02:31:18;;;;;;;0.55;0.32;;;;;;;;;;4215369;28;20055;-65
2022/03/10 02:33:19;;;;;;;0.22;0.13;;;;;;;;;;4196546;28;20090;-65
2022/03/10 02:35:20;;;;;;;0.22;0.20;;;;;;;;;;4214829;28;20546;-64
2022/03/10 02:37:21;;;;;;;0.13;0.13;;;;;;;;;;4214574;28;20112;-65
2022/03/10 02:39:22;;;;;;;1.58;0.20;;;;;;;;;;4215240;28;20475;-65
2022/03/10 02:41:23;;;;;;;0.13;0.10;;;;;;;;;;4215099;28;20098;-65
2022/03/10 02:43:24;;;;;;;0.30;0.30;;;;;;;;;;4214760;28;20109;-65
2022/03/10 02:45:25;;;;;;;0.10;0.10;;;;;;;;;;4215101;28;20052;-65
2022/03/10 02:47:27;;;;;;;0.28;0.20;;;;;;;;;;4214310;28;20048;-65
2022/03/10 02:49:30;;;;;;;0.30;0.20;;;;;;;;;;4214601;28;20101;-65
2022/03/10 02:51:31;;;;;;;0.20;0.20;;;;;;;;;;4214932;28;20097;-65
2022/03/10 02:53:32;;;;;;;0.20;0.20;;;;;;;;;;4214647;28;20091;-65
2022/03/10 02:55:32;;;;;;;0.75;0.10;;;;;;;;;;4213773;28;20109;-65
2022/03/10 02:57:37;;;;;;;0.28;0.10;;;;;;;;;;4214524;28;20044;-65
2022/03/10 02:59:38;;;;;;;0.43;0.20;;;;;;;;;;4214377;28;20384;-64
2022/03/10 03:01:39;;;;;;;0.20;0.20;;;;;;;;;;4214578;28;20249;-65
2022/03/10 03:03:40;;;;;;;0.20;0.20;;;;;;;;;;4214474;28;20091;-65
2022/03/10 03:05:41;;;;;;;0.10;0.10;;;;;;;;;;4214365;28;20090;-65
2022/03/10 03:07:43;;;;;;;0.10;0.10;;;;;;;;;;4214298;28;20113;-64
2022/03/10 03:09:44;;;;;;;0.20;0.10;;;;;;;;;;4214739;28;20056;-65
2022/03/10 03:11:45;;;;;;;0.15;0.10;;;;;;;;;;4197149;28;20535;-66
2022/03/10 03:13:46;;;;;;;0.47;0.20;;;;;;;;;;4214251;28;20080;-65
2022/03/10 03:15:47;;;;;;;0.20;0.10;;;;;;;;;;4214394;28;20048;-65
2022/03/10 03:17:48;;;;;;;0.10;0.10;;;;;;;;;;4195695;28;20507;-65
2022/03/10 03:19:49;;;;;;;0.20;0.20;;;;;;;;;;4214489;28;20044;-64
2022/03/10 03:21:53;;;;;;;0.15;0.10;;;;;;;;;;4213795;28;20052;-66
2022/03/10 03:23:54;;;;;;;0.20;0.10;;;;;;;;;;4214127;28;20556;-65
2022/03/10 03:25:55;;;;;;;0.10;0.10;;;;;;;;;;4214135;28;20056;-65
2022/03/10 03:27:55;;;;;;;0.50;0.20;;;;;;;;;;4195959;28;20218;-64
2022/03/10 03:29:56;;;;;;;0.10;0.10;;;;;;;;;;4214223;28;20130;-66
2022/03/10 03:31:57;;;;;;;0.15;0.13;;;;;;;;;;4213517;28;20056;-65
2022/03/10 03:33:58;;;;;;;0.22;0.20;;;;;;;;;;4213970;28;20457;-65
2022/03/10 03:35:59;;;;;;;0.20;0.20;;;;;;;;;;4213860;28;20388;-65
2022/03/10 03:38:00;;;;;;;0.30;0.30;;;;;;;;;;4213957;28;20040;-64
2022/03/10 03:40:02;;;;;;;0.10;0.10;;;;;;;;;;4196101;28;20128;-65
2022/03/10 03:42:03;;;;;;;0.10;0.10;;;;;;;;;;4214116;28;20056;-65
2022/03/10 03:44:04;;;;;;;0.10;0.10;;;;;;;;;;4179306;28;20056;-64
2022/03/10 03:46:05;;;;;;;0.15;0.10;;;;;;;;;;4213959;28;20048;-65
2022/03/10 03:48:06;;;;;;;0.20;0.10;;;;;;;;;;4213511;28;20110;-64
2022/03/10 03:50:07;;;;;;;0.43;0.30;;;;;;;;;;4213836;28;20059;-64
2022/03/10 03:52:08;;;;;;;0.25;0.10;;;;;;;;;;4213645;28;20090;-65
2022/03/10 03:54:09;;;;;;;0.20;0.20;;;;;;;;;;4213570;28;20048;-64
2022/03/10 03:56:10;;;;;;;0.17;0.17;;;;;;;;;;4213701;28;20448;-65
2022/03/10 03:58:11;;;;;;;0.10;0.10;;;;;;;;;;4213599;28;20204;-65
2022/03/10 04:00:12;;;;;;;0.10;0.10;;;;;;;;;;4213683;28;20097;-66
2022/03/10 04:02:13;;;;;;;0.43;0.20;;;;;;;;;;4213410;28;20055;-65
2022/03/10 04:04:14;;;;;;;0.13;0.13;;;;;;;;;;4213603;28;20051;-64
2022/03/10 04:06:16;;;;;;;0.10;0.10;;;;;;;;;;4213947;28;20518;-65
2022/03/10 04:08:17;;;;;;;0.10;0.10;;;;;;;;;;4213209;28;20463;-64
2022/03/10 04:10:18;;;;;;;0.15;0.10;;;;;;;;;;4213455;28;20059;-64
2022/03/10 04:12:19;;;;;;;0.90;0.20;;;;;;;;;;4213465;28;20170;-64
2022/03/10 04:14:20;;;;;;;0.10;0.10;;;;;;;;;;4213401;28;20120;-64
2022/03/10 04:16:21;;;;;;;0.40;0.30;;;;;;;;;;4213380;28;20044;-64
2022/03/10 04:18:22;;;;;;;0.10;0.10;;;;;;;;;;4212316;28;20091;-64
2022/03/10 04:20:22;;;;;;;0.10;0.10;;;;;;;;;;4213281;28;20155;-64
2022/03/10 04:22:23;;;;;;;0.10;0.10;;;;;;;;;;4212974;28;20052;-64
2022/03/10 04:24:24;;;;;;;0.10;0.10;;;;;;;;;;4213367;28;20102;-64
2022/03/10 04:26:25;;;;;;;0.22;0.20;;;;;;;;;;4213263;28;20052;-64
2022/03/10 04:28:26;;;;;;;0.10;0.10;;;;;;;;;;4213172;28;20062;-64
2022/03/10 04:30:27;;;;;;;0.10;0.10;;;;;;;;;;4213350;28;20082;-64
2022/03/10 04:32:28;;;;;;;0.10;0.10;;;;;;;;;;4212731;28;20401;-64
2022/03/10 04:34:29;;;;;;;0.00;0.00;;;;;;;;;;4213266;28;20051;-64
2022/03/10 04:36:30;;;;;;;0.70;0.15;;;;;;;;;;4211808;28;20052;-65
2022/03/10 04:38:31;;;;;;;0.38;0.20;;;;;;;;;;4213057;28;20441;-65
2022/03/10 04:40:32;;;;;;;0.40;0.20;;;;;;;;;;4213161;28;20095;-65
2022/03/10 04:42:34;;;;;;;0.10;0.10;;;;;;;;;;4212985;28;20427;-65
2022/03/10 04:44:35;;;;;;;0.28;0.10;;;;;;;;;;4213114;28;20064;-65
2022/03/10 04:46:36;;;;;;;0.10;0.10;;;;;;;;;;4213068;28;20563;-65
2022/03/10 04:48:37;;;;;;;0.22;0.20;;;;;;;;;;4212457;28;20048;-65
2022/03/10 04:50:38;;;;;;;0.20;0.10;;;;;;;;;;4212991;28;20090;-66
2022/03/10 04:52:39;;;;;;;0.03;0.03;;;;;;;;;;4212619;28;20097;-66
2022/03/10 04:54:40;;;;;;;0.15;0.10;;;;;;;;;;4211662;28;20098;-66
2022/03/10 04:56:41;;;;;;;0.10;0.10;;;;;;;;;;4212727;28;20056;-66
2022/03/10 04:58:42;;;;;;;0.30;0.30;;;;;;;;;;4212796;28;20169;-66
2022/03/10 05:00:43;;;;;;;0.20;0.20;;;;;;;;;;4211654;28;20124;-66
2022/03/10 05:02:44;;;;;;;0.10;0.10;;;;;;;;;;4212717;28;20078;-66
2022/03/10 05:04:45;;;;;;;0.32;0.20;;;;;;;;;;4212902;28;20052;-65
2022/03/10 05:06:46;;;;;;;0.45;0.10;;;;;;;;;;4212642;28;20085;-65
2022/03/10 05:08:46;;;;;;;0.20;0.10;;;;;;;;;;4212696;28;20094;-65
2022/03/10 05:10:47;;;;;;;0.10;0.10;;;;;;;;;;4212783;28;20097;-65
2022/03/10 05:12:50;;;;;;;0.10;0.10;;;;;;;;;;4212590;28;20058;-65
2022/03/10 05:14:50;;;;;;;0.15;0.10;;;;;;;;;;4212454;28;20077;-66
2022/03/10 05:16:51;;;;;;;0.03;0.00;;;;;;;;;;4212261;28;20185;-65
2022/03/10 05:18:52;;;;;;;0.20;0.10;;;;;;;;;;4194508;28;20052;-65
2022/03/10 05:20:53;;;;;;;0.10;0.10;;;;;;;;;;4212144;28;20093;-65
2022/03/10 05:22:55;;;;;;;0.20;0.17;;;;;;;;;;4212305;28;20143;-64
2022/03/10 05:24:55;;;;;;;0.08;0.08;;;;;;;;;;4212590;28;20059;-66
2022/03/10 05:26:57;;;;;;;0.30;0.30;;;;;;;;;;4194362;28;20094;-65
2022/03/10 05:28:58;;;;;;;0.10;0.10;;;;;;;;;;4213850;28;20090;-65
2022/03/10 05:30:59;;;;;;;0.10;0.10;;;;;;;;;;4215963;28;20097;-64
2022/03/10 05:33:00;;;;;;;0.20;0.10;;;;;;;;;;4215229;28;20101;-64
2022/03/10 05:35:01;;;;;;;0.10;0.10;;;;;;;;;;4215972;28;20094;-65
2022/03/10 05:37:02;;;;;;;0.10;0.10;;;;;;;;;;4197512;28;20141;-65
2022/03/10 05:39:04;;;;;;;0.28;0.20;;;;;;;;;;4215752;28;20101;-64
2022/03/10 05:41:05;;;;;;;0.00;0.00;;;;;;;;;;4215624;28;20048;-65
2022/03/10 05:43:06;;;;;;;0.30;0.17;;;;;;;;;;4215644;28;20059;-64
2022/03/10 05:45:07;;;;;;;0.20;0.20;;;;;;;;;;4197644;28;20126;-66
2022/03/10 05:47:09;;;;;;;0.10;0.10;;;;;;;;;;4215037;28;20101;-65
2022/03/10 05:49:10;;;;;;;0.10;0.10;;;;;;;;;;4215898;28;20101;-64
2022/03/10 05:51:11;;;;;;;0.00;0.00;;;;;;;;;;4215711;28;20474;-66
2022/03/10 05:53:12;;;;;;;0.10;0.10;;;;;;;;;;4215150;28;20091;-65
2022/03/10 05:55:13;;;;;;;0.20;0.10;;;;;;;;;;4215441;28;20056;-64
2022/03/10 05:57:14;;;;;;;0.30;0.20;;;;;;;;;;4215174;28;20483;-64
2022/03/10 05:59:16;;;;;;;0.10;0.10;;;;;;;;;;4215513;28;20048;-64
2022/03/10 06:01:17;;;;;;;0.20;0.20;;;;;;;;;;4203989;28;20110;-64
2022/03/10 06:03:19;;;;;;;0.20;0.10;;;;;;;;;;4204255;28;20098;-65
2022/03/10 06:05:20;;;;;;;0.13;0.10;;;;;;;;;;4200703;28;20548;-64
2022/03/10 06:07:21;;;;;;;0.10;0.10;;;;;;;;;;4202915;28;20109;-64
2022/03/10 06:09:22;;;;;;;0.10;0.10;;;;;;;;;;4204142;28;20086;-64
2022/03/10 06:11:23;;;;;;;0.10;0.10;;;;;;;;;;4206468;28;20098;-64
2022/03/10 06:13:24;;;;;;;0.30;0.20;;;;;;;;;;4203994;28;20056;-65
2022/03/10 06:15:25;;;;;;;0.40;0.40;;;;;;;;;;4206830;28;20039;-64
2022/03/10 06:17:26;;;;;;;0.80;0.20;;;;;;;;;;4203547;28;20421;-65
2022/03/10 06:19:27;;;;;;;0.10;0.10;;;;;;;;;;4181126;28;20061;-64
2022/03/10 06:21:28;;;;;;;0.55;0.10;;;;;;;;;;4211648;28;20109;-64
2022/03/10 06:23:29;;;;;;;0.10;0.10;;;;;;;;;;4203573;28;20513;-65
2022/03/10 06:25:30;;;;;;;0.17;0.15;;;;;;;;;;4182116;28;20095;-64
2022/03/10 06:27:31;;;;;;;0.68;0.20;;;;;;;;;;4201793;28;20406;-65
2022/03/10 06:29:32;;;;;;;1.48;0.20;;;;;;;;;;4204364;28;20109;-64
2022/03/10 06:31:33;;;;;;;0.10;0.10;;;;;;;;;;4206110;28;20479;-65
2022/03/10 06:33:35;;;;;;;0.47;0.10;;;;;;;;;;4205194;28;20055;-65
2022/03/10 06:35:36;;;;;;;0.20;0.20;;;;;;;;;;4191659;28;20044;-64
2022/03/10 06:37:39;;;;;;;0.47;0.10;;;;;;;;;;4180814;28;20520;-65
2022/03/10 06:39:40;;;;;;;0.70;0.17;;;;;;;;;;4201565;28;20093;-65
2022/03/10 06:41:41;;;;;;;0.43;0.20;;;;;;;;;;4198232;28;20525;-64
2022/03/10 06:43:42;;;;;;;3.20;0.20;;;;;;;;;;4205431;28;20131;-66
2022/03/10 06:45:43;;;;;;;1.20;0.20;;;;;;;;;;4198574;28;20044;-70
2022/03/10 06:47:44;;;;;;;0.43;0.10;;;;;;;;;;4167524;28;20180;-69
2022/03/10 06:49:45;;;;;;;0.20;0.20;;;;;;;;;;4181672;28;20044;-69
2022/03/10 06:51:46;;;;;;;0.10;0.10;;;;;;;;;;4182347;28;20049;-69
2022/03/10 06:53:46;;;;;;;0.22;0.10;;;;;;;;;;4200405;28;20279;-69
2022/03/10 06:55:47;;;;;;;0.50;0.20;;;;;;;;;;4170299;28;20040;-70
2022/03/10 06:57:48;;;;;;;0.30;0.20;;;;;;;;;;4198027;28;20101;-70
2022/03/10 06:59:49;;;;;;;0.30;0.10;;;;;;;;;;4194830;28;20401;-70
2022/03/10 07:01:50;;;;;;;0.93;0.13;;;;;;;;;;4172997;28;20067;-68
2022/03/10 07:03:51;;;;;;;0.43;0.20;;;;;;;;;;4193864;28;20078;-69
2022/03/10 07:05:52;;;;;;;1.02;0.20;;;;;;;;;;4190910;28;20049;-69
2022/03/10 07:07:53;;;;;;;0.63;0.20;;;;;;;;;;4157548;28;20135;-69
2022/03/10 07:09:54;;;;;;;0.47;0.30;;;;;;;;;;4193976;28;20079;-69
2022/03/10 07:11:55;;;;;;;5.32;0.30;;;;;;;;;;4174147;28;20059;-69
2022/03/10 07:13:56;;;;;;;0.60;0.15;;;;;;;;;;4167751;28;20052;-69
2022/03/10 07:15:58;;;;;;;1.55;0.30;;;;;;;;;;4172847;28;20460;-68
2022/03/10 07:17:59;;;;;;;2.75;0.20;;;;;;;;;;4192715;28;20044;-68
2022/03/10 07:20:00;;;;;;;0.60;0.50;;;;;;;;;;4171372;28;20123;-68
2022/03/10 07:22:01;;;;;;;2.97;0.40;;;;;;;;;;4169507;28;20546;-68
2022/03/10 07:24:01;;;;;;;4.78;0.40;;;;;;;;;;4168149;28;20106;-68
2022/03/10 07:26:02;;;;;;;2.30;0.30;;;;;;;;;;4189071;28;20051;-68
2022/03/10 07:28:04;;;;;;;0.30;0.20;;;;;;;;;;4186066;28;20550;-69
2022/03/10 07:30:06;;;;;;;8.50;1.00;;;;;;;;;;4183232;28;20056;-69
2022/03/10 07:32:07;;;;;;;4.53;0.70;;;;;;;;;;4185021;28;20055;-68
2022/03/10 07:34:08;;;;;;;1.48;0.30;;;;;;;;;;4189397;28;20568;-68
2022/03/10 07:36:09;;;;;;;3.03;0.38;;;;;;;;;;4186359;28;20056;-68
2022/03/10 07:38:13;;;;;;;0.57;0.20;;;;;;;;;;4138498;28;20511;-67
2022/03/10 07:40:14;;;;;;;5.47;0.63;;;;;;;;;;4130412;28;20045;-68
2022/03/10 07:42:15;;;;;;;4.97;0.50;;;;;;;;;;4164053;28;20562;-68
2022/03/10 07:44:16;;;;;;;3.63;0.47;;;;;;;;;;4183600;28;20056;-68
2022/03/10 07:46:22;;;;;;;4.43;0.40;;;;;;;;;;4139888;28;20057;-68
2022/03/10 07:48:23;;;;;;;1.23;0.30;;;;;;;;;;4178102;28;20109;-69
2022/03/10 07:50:24;;;;;;;2.38;0.50;;;;;;;;;;4186874;28;20165;-67
2022/03/10 07:52:25;;;;;;;1.88;0.57;;;;;;;;;;4180183;28;20162;-67
2022/03/10 07:54:27;;;;;;;2.03;0.70;;;;;;;;;;4149385;28;20067;-67
2022/03/10 07:56:28;;;;;;;1.50;0.40;;;;;;;;;;4175426;28;20138;-67
2022/03/10 07:58:29;;;;;;;1.90;0.30;;;;;;;;;;4178887;28;20113;-68
2022/03/10 08:00:32;;;;;;;2.72;0.60;;;;;;;;;;4158468;28;21100;-68
2022/03/10 08:02:33;;;;;;;2.33;0.45;;;;;;;;;;4182309;28;20090;-66
2022/03/10 08:04:34;;;;;;;1.88;0.30;;;;;;;;;;4187865;28;20664;-67
2022/03/10 08:06:35;;;;;;;3.90;0.60;;;;;;;;;;4174614;28;20136;-67
2022/03/10 08:08:37;;;;;;;5.25;0.40;;;;;;;;;;4160079;28;21196;-68
2022/03/10 08:10:38;;;;;;;3.97;0.50;;;;;;;;;;4177446;28;20552;-68
2022/03/10 08:12:39;;;;;;;1.67;0.50;;;;;;;;;;4177216;28;20217;-65
2022/03/10 08:14:40;;;;;;;1.80;0.47;;;;;;;;;;4160721;28;20059;-66
2022/03/10 08:16:41;;;;;;;3.03;0.47;;;;;;;;;;4149056;28;20052;-68
2022/03/10 08:18:43;;;;;;;2.30;0.40;;;;;;;;;;4143628;28;20501;-69
2022/03/10 08:20:45;;;;;;;3.05;0.40;;;;;;;;;;4184324;28;20131;-67
2022/03/10 08:22:46;;;;;;;4.78;0.40;;;;;;;;;;4167973;28;20137;-68
2022/03/10 08:24:47;;;;;;;1.65;0.50;;;;;;;;;;4165151;28;20056;-70
2022/03/10 08:26:48;;;;;;;4.90;0.50;;;;;;;;;;4182975;28;20059;-69
2022/03/10 08:28:51;;;;;;;1.75;0.60;;;;;;;;;;4149218;28;20055;-69
2022/03/10 08:30:52;;;;;;;4.43;0.63;;;;;;;;;;4158706;28;20117;-69
2022/03/10 08:32:53;;;;;;;3.83;0.40;;;;;;;;;;4145630;28;20091;-69
2022/03/10 08:34:54;;;;;;;1.60;0.40;;;;;;;;;;4165680;28;20095;-68
2022/03/10 08:36:55;;;;;;;2.55;0.57;;;;;;;;;;4164538;28;20075;-69
2022/03/10 08:38:56;;;;;;;1.65;0.30;;;;;;;;;;4186832;28;20052;-71
2022/03/10 08:40:59;;;;;;;1.45;0.40;;;;;;;;;;4165137;28;20412;-68
2022/03/10 08:43:00;;;;;;;2.05;0.50;;;;;;;;;;4167644;28;20052;-68
2022/03/10 08:45:01;;;;;;;2.92;0.35;;;;;;;;;;4184544;28;20137;-68
2022/03/10 08:47:02;;;;;;;2.53;0.50;;;;;;;;;;4161312;28;20102;-68
2022/03/10 08:49:03;;;;;;;4.10;0.55;;;;;;;;;;4182866;28;20055;-69
2022/03/10 08:51:04;;;;;;;3.65;0.30;;;;;;;;;;4158382;28;20048;-68
2022/03/10 08:53:05;;;;;;;3.03;0.55;;;;;;;;;;4172498;28;20048;-67
2022/03/10 08:55:07;;;;;;;2.30;0.40;;;;;;;;;;4176583;28;20106;-68
2022/03/10 08:57:07;;;;;;;0.95;0.30;;;;;;;;;;4147569;28;20098;-70
2022/03/10 08:59:09;;;;;;;4.30;0.30;;;;;;;;;;4156818;28;21367;-69
2022/03/10 09:01:10;;;;;;;0.82;0.40;;;;;;;;;;4151907;28;20053;-68
2022/03/10 09:03:11;;;;;;;0.70;0.35;;;;;;;;;;4155518;28;20049;-68
2022/03/10 09:05:13;;;;;;;2.40;0.40;;;;;;;;;;4133697;28;20460;-67
2022/03/10 09:07:14;;;;;;;1.38;0.45;;;;;;;;;;4163413;28;20061;-68
2022/03/10 09:09:16;;;;;;;3.83;0.50;;;;;;;;;;4162894;28;20568;-66
2022/03/10 09:11:17;;;;;;;1.48;0.55;;;;;;;;;;4158969;28;20057;-67
2022/03/10 09:13:18;;;;;;;1.67;0.57;;;;;;;;;;4142464;28;20097;-67
2022/03/10 09:15:21;;;;;;;2.42;0.50;;;;;;;;;;4144006;28;20147;-69
2022/03/10 09:17:22;;;;;;;2.42;0.40;;;;;;;;;;4167956;28;20145;-69
2022/03/10 09:19:23;;;;;;;3.83;0.60;;;;;;;;;;4135439;28;20049;-68
2022/03/10 09:21:26;;;;;;;1.75;0.43;;;;;;;;;;4141671;28;20060;-67
2022/03/10 09:23:27;;;;;;;1.60;0.35;;;;;;;;;;4156560;28;20060;-67
2022/03/10 09:25:28;;;;;;;2.95;0.55;;;;;;;;;;4158752;28;20076;-69
2022/03/10 09:27:29;;;;;;;2.78;0.63;;;;;;;;;;4175943;28;20052;-66
2022/03/10 09:29:30;;;;;;;2.67;0.52;;;;;;;;;;4156010;28;20819;-68
2022/03/10 09:31:32;;;;;;;2.88;0.55;;;;;;;;;;4165227;28;20052;-68
2022/03/10 09:33:33;;;;;;;2.75;0.65;;;;;;;;;;4163697;28;20233;-70
2022/03/10 09:35:34;;;;;;;0.65;0.40;;;;;;;;;;4162173;28;20098;-69
2022/03/10 09:37:35;;;;;;;2.35;0.50;;;;;;;;;;4147749;28;20811;-68
2022/03/10 09:39:36;;;;;;;0.88;0.45;;;;;;;;;;4162602;28;20083;-67
2022/03/10 09:41:37;;;;;;;0.95;0.50;;;;;;;;;;4182308;28;20056;-67
2022/03/10 09:43:39;;;;;;;1.52;0.55;;;;;;;;;;4170589;28;20404;-69
2022/03/10 09:45:40;;;;;;;5.30;0.85;;;;;;;;;;4153785;28;20055;-69
2022/03/10 09:47:43;;;;;;;1.92;0.47;;;;;;;;;;4178889;28;20113;-68
2022/03/10 09:49:45;;;;;;;1.60;0.57;;;;;;;;;;4145429;28;20052;-68
2022/03/10 09:51:49;;;;;;;0.68;0.30;;;;;;;;;;4170326;28;20052;-71
2022/03/10 09:53:50;;;;;;;0.73;0.60;;;;;;;;;;4152095;28;20052;-68
2022/03/10 09:55:52;;;;;;;1.25;0.55;;;;;;;;;;4154501;28;20113;-66
2022/03/10 09:57:54;;;;;;;7.13;0.82;;;;;;;;;;4153072;28;21829;-65
2022/03/10 09:59:58;;;;;;;1.80;0.60;;;;;;;;;;4149636;28;20943;-66
2022/03/10 10:02:04;;;;;;;2.90;0.55;;;;;;;;;;4162661;28;20703;-65
2022/03/10 10:04:06;;;;;;;3.70;0.50;;;;;;;;;;4165306;28;20113;-67
2022/03/10 10:06:07;;;;;;;2.60;1.08;;;;;;;;;;4145270;28;20049;-70
2022/03/10 10:08:15;;;;;;;3.60;0.80;;;;;;;;;;4179864;28;20063;-68
2022/03/10 10:10:26;;;;;;;3.17;0.60;;;;;;;;;;4169009;28;20052;-67
2022/03/10 10:12:30;;;;;;;2.38;0.70;;;;;;;;;;4164966;28;20048;-68
2022/03/10 10:14:36;;;;;;;1.67;0.65;;;;;;;;;;4155175;28;20045;-68
2022/03/10 10:16:45;;;;;;;2.72;0.70;;;;;;;;;;4168768;28;20305;-68
2022/03/10 10:18:46;;;;;;;1.90;0.60;;;;;;;;;;4156325;28;20504;-70
2022/03/10 10:20:49;;;;;;;1.40;0.60;;;;;;;;;;4183948;28;20044;-67
2022/03/10 10:22:51;;;;;;;3.95;0.50;;;;;;;;;;4168304;28;20551;-67
2022/03/10 10:24:59;;;;;;;1.27;0.68;;;;;;;;;;4166522;28;21637;-66
2022/03/10 10:27:32;;;;;;;2.30;0.50;;;;;;;;;;4168621;28;20479;-66
2022/03/10 10:29:33;;;;;;;1.35;0.50;;;;;;;;;;4145880;28;20064;-66
2022/03/10 10:31:36;;;;;;;0.60;0.45;;;;;;;;;;4182470;28;20085;-69
2022/03/10 10:33:38;;;;;;;1.02;0.50;;;;;;;;;;4188120;28;20125;-66
2022/03/10 10:35:43;;;;;;;1.55;0.60;;;;;;;;;;4181926;28;20744;-67
2022/03/10 10:37:46;;;;;;;4.97;0.60;;;;;;;;;;4155926;28;20107;-65
2022/03/10 10:39:51;;;;;;;2.15;0.50;;;;;;;;;;4170277;28;20141;-68
2022/03/10 10:41:52;;;;;;;5.18;0.50;;;;;;;;;;4156263;28;20053;-66
2022/03/10 10:43:58;;;;;;;2.47;0.68;;;;;;;;;;4170370;28;20060;-66
2022/03/10 10:45:59;;;;;;;3.22;0.77;;;;;;;;;;4184535;28;20051;-67
2022/03/10 10:48:08;;;;;;;3.63;0.55;;;;;;;;;;4187623;28;20060;-66
2022/03/10 10:50:09;;;;;;;2.83;0.73;;;;;;;;;;4166353;28;20110;-66
2022/03/10 10:52:11;;;;;;;1.15;0.50;;;;;;;;;;4187875;28;20495;-66
2022/03/10 10:54:19;;;;;;;2.75;0.98;;;;;;;;;;4160456;28;20052;-66
2022/03/10 10:56:20;;;;;;;1.20;0.40;;;;;;;;;;4158722;28;20048;-66
2022/03/10 10:58:23;;;;;;;3.35;0.55;;;;;;;;;;4153297;28;20595;-68
2022/03/10 11:00:24;;;;;;;2.15;0.70;;;;;;;;;;4121009;28;20045;-66
2022/03/10 11:02:25;;;;;;;1.52;0.40;;;;;;;;;;4154729;28;20599;-66
2022/03/10 11:04:27;;;;;;;2.70;0.60;;;;;;;;;;4146054;28;20053;-67
2022/03/10 11:06:28;;;;;;;1.08;0.65;;;;;;;;;;4155510;28;20052;-66
2022/03/10 11:08:30;;;;;;;1.75;0.57;;;;;;;;;;4160438;28;20584;-68
2022/03/10 11:10:31;;;;;;;1.20;0.60;;;;;;;;;;4156551;28;20429;-67
2022/03/10 11:12:33;;;;;;;0.50;0.35;;;;;;;;;;4149153;28;20472;-68
2022/03/10 11:14:35;;;;;;;1.58;0.32;;;;;;;;;;4145373;28;20053;-67
2022/03/10 11:16:36;;;;;;;1.67;0.30;;;;;;;;;;4159953;28;21251;-66
2022/03/10 11:18:39;;;;;;;1.23;0.50;;;;;;;;;;4160517;28;20061;-66
2022/03/10 11:20:40;;;;;;;1.80;0.50;;;;;;;;;;4143843;28;20052;-66
2022/03/10 11:22:44;;;;;;;2.20;0.73;;;;;;;;;;4141435;28;20064;-66
2022/03/10 11:25:03;;;;;;;1.17;0.60;;;;;;;;;;4145304;28;20506;-66
2022/03/10 11:27:10;;;;;;;1.08;0.50;;;;;;;;;;4164814;28;21087;-66
2022/03/10 11:29:12;;;;;;;1.20;0.40;;;;;;;;;;4161190;28;20113;-67
2022/03/10 11:31:14;;;;;;;1.17;0.60;;;;;;;;;;4178446;28;20109;-67
2022/03/10 11:33:16;;;;;;;1.10;0.70;;;;;;;;;;4152080;28;20554;-66
2022/03/10 11:35:17;;;;;;;0.85;0.60;;;;;;;;;;4157495;28;20098;-67
2022/03/10 11:37:36;;;;;;;1.60;0.50;;;;;;;;;;4161064;28;20048;-65
2022/03/10 11:39:55;;;;;;;0.60;0.40;;;;;;;;;;4157962;28;21016;-68
2022/03/10 11:42:03;;;;;;;3.67;0.57;;;;;;;;;;4165990;28;20807;-66
2022/03/10 11:44:05;;;;;;;1.90;0.30;;;;;;;;;;4165081;28;20121;-66
2022/03/10 11:46:17;;;;;;;4.18;0.80;;;;;;;;;;4164642;28;20223;-66
2022/03/10 11:48:25;;;;;;;0.93;0.60;;;;;;;;;;4164388;28;20048;-66
2022/03/10 11:50:27;;;;;;;2.13;0.77;;;;;;;;;;4158464;28;20106;-65
2022/03/10 11:52:28;;;;;;;0.57;0.50;;;;;;;;;;4158961;28;20130;-66
2022/03/10 11:54:30;;;;;;;1.30;0.80;;;;;;;;;;4145206;28;20193;-67
2022/03/10 11:56:55;;;;;;;1.27;0.70;;;;;;;;;;4149868;28;20053;-67
2022/03/10 11:58:55;;;;;;;3.63;0.82;;;;;;;;;;4144560;28;20057;-67
2022/03/10 12:00:57;;;;;;;6.75;0.70;;;;;;;;;;4154878;28;20610;-68
2022/03/10 12:02:58;;;;;;;4.70;1.02;;;;;;;;;;4137423;28;20115;-68
2022/03/10 12:04:59;;;;;;;4.85;0.80;;;;;;;;;;4149462;28;20056;-68
2022/03/10 12:07:00;;;;;;;3.20;0.50;;;;;;;;;;4163251;28;20084;-71
2022/03/10 12:09:02;;;;;;;1.30;0.60;;;;;;;;;;4155729;28;20062;-69
2022/03/10 12:11:04;;;;;;;5.60;0.80;;;;;;;;;;4147913;28;20049;-68
2022/03/10 12:13:20;;;;;;;5.70;0.90;;;;;;;;;;4164340;28;20942;-70
2022/03/10 12:15:23;;;;;;;1.85;0.57;;;;;;;;;;4147608;28;20632;-68
2022/03/10 12:17:44;;;;;;;1.63;0.60;;;;;;;;;;4155410;28;21230;-69